Ventress, Louisiana
Current Conditions -  °F | °C
As of 3:55 AM on Monday 22 Dec 2014 (Local Time) from KHZR Reporting Station
Haze Haze  
Wind Chill: 53°   Ceiling: 400
Heat Index: 53°   Visibility: 1mi
Dew Point: 52°   Wind: 0mph
Humidity: 97%   Direction: NA
Pressure: 29.87"   Gusts: NA
Location:  30.68°N, 91.41°W
Report Text: KHZR 220955Z AUTO 00000KT 1SM BR OVC004 12/11 A2987 RMK AO2 T01170113
Loading
Personal Weather Stations






























Interactive Weather Map New forecast layout! Learn more

10-Day Weather Forecast

Advertisements
Track Severe Weather on mobile